Bowerston, Ohio
Current Conditions -  °F | °C
As of 9:12 PM on Sunday 25 Jan 2015 (Local Time) from KPHD Reporting Station
Light Snow Light Snow  
Wind Chill: 29°   Ceiling: 900
Heat Index: 29°   Visibility: 1.2mi
Dew Point: 26°   Wind: 3mph
Humidity: 89%   Direction: 360°N
Pressure: 29.81"   Gusts: NA
Location:  40.43°N, 81.19°W
Report Text: KPHD 260212Z AUTO 36003KT 1 1/4SM -SN BR BKN009 BKN014 OVC021 M02/M03 A2981 RMK AO2 CIG 005V013 P0001 T10171033
Loading
Personal Weather Stations






























Interactive Weather Map New forecast layout! Learn more

10-Day Weather Forecast

Advertisements
Track Severe Weather on mobile